createdAt,value
2022-11-28T00:00:40.426Z,19.1
2022-11-28T00:02:41.912Z,10.6
2022-11-28T00:04:43.459Z,14.1
2022-11-28T00:08:45.766Z,15.5
2022-11-28T00:10:50.468Z,18.4
2022-11-28T00:14:53.163Z,11.1
2022-11-28T00:16:54.507Z,16.5
2022-11-28T00:18:55.853Z,11.4
2022-11-28T00:20:57.207Z,11.2
2022-11-28T00:22:58.547Z,18.2
2022-11-28T00:25:03.200Z,10.6
2022-11-28T00:27:04.569Z,15.2
2022-11-28T00:29:05.914Z,11.9
2022-11-28T00:30:08.248Z,10
2022-11-28T00:32:09.656Z,12.4
2022-11-28T00:34:10.919Z,14.7
2022-11-28T00:36:12.293Z,28.4
2022-11-28T00:38:17.116Z,13.1
2022-11-28T00:40:18.334Z,14.1
2022-11-28T00:42:19.696Z,14.4
2022-11-28T00:44:21.025Z,18.4
2022-11-28T00:46:22.496Z,15.6
2022-11-28T00:48:23.833Z,16.6
2022-11-28T00:50:25.114Z,15.5
2022-11-28T00:52:29.776Z,19
2022-11-28T00:56:32.481Z,10.2
2022-11-28T00:58:33.820Z,15
2022-11-28T01:00:35.172Z,9.6
2022-11-28T01:02:36.615Z,10.5
2022-11-28T01:04:37.873Z,14.2
2022-11-28T01:08:43.915Z,14.4
2022-11-28T01:10:45.263Z,11.2
2022-11-28T01:14:47.972Z,13.9
2022-11-28T01:16:49.433Z,13.2
2022-11-28T01:20:55.133Z,16
2022-11-28T01:22:56.504Z,14.3
2022-11-28T01:24:57.871Z,18.4
2022-11-28T01:27:24.964Z,19.4
2022-11-28T01:29:26.337Z,10.8
2022-11-28T01:31:27.754Z,15.9
2022-11-28T01:37:35.091Z,8.5
2022-11-28T01:43:39.180Z,18.7
2022-11-28T01:45:40.528Z,22.4
2022-11-28T01:47:45.232Z,13.1
2022-11-28T01:53:49.252Z,12.1
2022-11-28T01:55:50.608Z,18.8
2022-11-28T01:57:51.957Z,11.2
2022-11-28T01:59:53.381Z,16.6
2022-11-28T02:01:58.069Z,7.5
2022-11-28T02:03:59.369Z,10.3
2022-11-28T02:06:00.699Z,12.2
2022-11-28T02:08:02.128Z,12.9
2022-11-28T02:10:03.435Z,14.2
2022-11-28T02:12:04.801Z,16.9
2022-11-28T02:14:06.145Z,11.8
2022-11-28T02:16:10.863Z,11.3
2022-11-28T02:21:15.791Z,14.5
2022-11-28T02:23:17.175Z,12.7
2022-11-28T02:25:18.525Z,9.4
2022-11-28T02:27:19.875Z,16.7
2022-11-28T02:29:24.537Z,19.6
2022-11-28T02:31:26.018Z,11.2
2022-11-28T02:33:27.240Z,12.5
2022-11-28T02:35:28.604Z,24.7
2022-11-28T02:37:29.961Z,9.2
2022-11-28T02:39:31.315Z,15.3
2022-11-28T02:41:32.708Z,5.5
2022-11-28T02:43:37.371Z,8
2022-11-28T02:45:38.716Z,9.5
2022-11-28T02:47:40.080Z,9.9
2022-11-28T02:49:41.443Z,9
2022-11-28T02:51:42.805Z,9.7
2022-11-28T02:53:44.200Z,7.5
2022-11-28T02:55:45.544Z,11.5
2022-11-28T02:57:50.181Z,9.9
2022-11-28T03:01:52.955Z,8.6
2022-11-28T03:03:54.279Z,14.5
2022-11-28T03:05:55.635Z,8.7
2022-11-28T03:07:57.064Z,11.1
2022-11-28T03:09:58.341Z,7.6
2022-11-28T03:12:03.001Z,11.1
2022-11-28T03:14:04.341Z,11
2022-11-28T03:16:05.751Z,7.3
2022-11-28T03:17:08.024Z,8
2022-11-28T03:25:16.779Z,6.2
2022-11-28T03:31:20.970Z,12.5
2022-11-28T03:33:22.239Z,9
2022-11-28T03:35:23.586Z,6.2
2022-11-28T03:37:24.928Z,7.5
2022-11-28T03:39:29.596Z,10.5
2022-11-28T03:41:30.949Z,9.3
2022-11-28T03:43:32.335Z,11.4
2022-11-28T03:47:35.024Z,6.1
2022-11-28T03:49:36.391Z,4.2
2022-11-28T03:51:37.755Z,4.2
2022-11-28T03:53:42.452Z,12.8
2022-11-28T03:55:43.900Z,7.5
2022-11-28T03:57:45.170Z,6.4
2022-11-28T03:59:46.544Z,6.1
2022-11-28T04:01:47.913Z,5
2022-11-28T04:03:49.282Z,8.4
2022-11-28T04:05:50.621Z,9.2
2022-11-28T04:07:55.434Z,6.7
2022-11-28T04:09:56.711Z,2.7
2022-11-28T04:11:58.068Z,10.1
2022-11-28T04:13:00.408Z,9.8
2022-11-28T04:15:01.782Z,8.9
2022-11-28T04:17:03.187Z,8.2
2022-11-28T04:19:04.563Z,6.7
2022-11-28T04:21:09.260Z,8.1
2022-11-28T04:23:10.641Z,9.7
2022-11-28T04:25:11.965Z,5.4
2022-11-28T04:27:13.343Z,6.5
2022-11-28T04:29:14.679Z,8.8
2022-11-28T04:31:16.128Z,14.5
2022-11-28T04:33:17.560Z,10.9
2022-11-28T04:35:22.094Z,6.2
2022-11-28T04:37:23.464Z,14.4
2022-11-28T04:39:24.840Z,6.6
2022-11-28T04:41:26.194Z,14.7
2022-11-28T04:43:27.552Z,8
2022-11-28T04:45:28.971Z,10.8
2022-11-28T04:47:30.256Z,8.4
2022-11-28T04:49:34.918Z,10.4
2022-11-28T04:51:36.312Z,7.1
2022-11-28T04:53:37.624Z,6.1
2022-11-28T04:55:38.967Z,3.9
2022-11-28T04:57:40.340Z,7.1
2022-11-28T04:59:41.700Z,7.5
2022-11-28T05:01:43.113Z,4.6
2022-11-28T05:03:47.752Z,8.2
2022-11-28T05:05:49.126Z,5.2
2022-11-28T05:07:50.491Z,9.2
2022-11-28T05:10:13.414Z,8.3
2022-11-28T05:12:14.826Z,6.6
2022-11-28T05:14:16.206Z,5.9
2022-11-28T05:16:20.940Z,6.7
2022-11-28T05:18:22.233Z,11.4
2022-11-28T05:20:23.589Z,3.3
2022-11-28T05:22:24.982Z,13.4
2022-11-28T05:24:31.971Z,4.2
2022-11-28T05:26:27.680Z,6.6
2022-11-28T05:28:29.094Z,3.2
2022-11-28T05:30:33.751Z,7.4
2022-11-28T05:32:35.144Z,16.2
2022-11-28T05:34:36.516Z,7
2022-11-28T05:36:37.860Z,6.8
2022-11-28T05:38:39.211Z,3.2
2022-11-28T05:40:40.590Z,6.3
2022-11-28T05:42:41.968Z,5.1
2022-11-28T05:44:46.675Z,6.4
2022-11-28T05:46:47.970Z,6.1
2022-11-28T05:48:49.347Z,5.6
2022-11-28T05:50:52.294Z,6.6
2022-11-28T05:52:53.628Z,3.3
2022-11-28T05:54:55.006Z,4.5
2022-11-28T05:56:56.371Z,7.8
2022-11-28T05:59:01.060Z,5
2022-11-28T06:01:02.390Z,5.4
2022-11-28T06:03:03.743Z,4.4
2022-11-28T06:06:07.465Z,5.5
2022-11-28T06:08:08.866Z,4.1
2022-11-28T06:10:10.181Z,9.1
2022-11-28T06:12:14.875Z,5.4
2022-11-28T06:14:16.204Z,5.4
2022-11-28T06:16:17.637Z,4.3
2022-11-28T06:18:18.914Z,3.2
2022-11-28T06:20:20.302Z,4.6
2022-11-28T06:24:23.007Z,2.1
2022-11-28T06:26:27.670Z,2.8
2022-11-28T06:28:29.038Z,4.5
2022-11-28T06:30:30.437Z,4
2022-11-28T06:32:31.774Z,3.2
2022-11-28T06:36:34.485Z,5.4
2022-11-28T06:38:35.833Z,3
2022-11-28T06:40:40.523Z,3.9
2022-11-28T06:59:58.455Z,7.3
2022-11-28T07:02:04.216Z,6.6
2022-11-28T07:04:01.157Z,4.1
2022-11-28T07:06:02.504Z,3.4
2022-11-28T07:08:07.232Z,5
2022-11-28T07:10:08.565Z,3.7
2022-11-28T07:12:09.915Z,3.8
2022-11-28T07:14:11.251Z,5.4
2022-11-28T07:16:12.679Z,3.5
2022-11-28T07:18:14.003Z,3.6
2022-11-28T07:20:15.369Z,3.2
2022-11-28T07:22:20.078Z,4.3
2022-11-28T07:24:21.416Z,5.1
2022-11-28T07:26:22.824Z,3.9
2022-11-28T07:28:24.221Z,5.2
2022-11-28T07:30:25.519Z,16.3
2022-11-28T07:32:26.916Z,5.9
2022-11-28T07:34:28.276Z,4.8
2022-11-28T07:36:32.925Z,8.1
2022-11-28T07:38:34.292Z,7
2022-11-28T07:40:35.651Z,4.2
2022-11-28T07:42:37.109Z,4.2
2022-11-28T07:44:38.394Z,8.3
2022-11-28T07:46:39.784Z,5
2022-11-28T07:48:41.109Z,7.1
2022-11-28T07:50:45.778Z,9.9
2022-11-28T07:52:47.149Z,5.9
2022-11-28T07:54:48.524Z,5.3
2022-11-28T07:55:50.864Z,6.2
2022-11-28T07:57:52.224Z,6.3
2022-11-28T07:59:53.606Z,7
2022-11-28T08:01:55.022Z,5.1
2022-11-28T08:03:59.707Z,6.7
2022-11-28T08:06:02.881Z,8.2
2022-11-28T08:08:02.485Z,5.2
2022-11-28T08:10:03.786Z,6
2022-11-28T08:14:06.506Z,4.7
2022-11-28T08:16:07.903Z,7.9
2022-11-28T08:18:12.557Z,5.6
2022-11-28T08:20:13.914Z,6.6
2022-11-28T08:22:15.277Z,3.7
2022-11-28T08:24:16.642Z,21.1
2022-11-28T08:26:18.004Z,8.3
2022-11-28T08:28:19.359Z,7.2
2022-11-28T08:30:20.760Z,13.6
2022-11-28T08:34:26.791Z,7.4
2022-11-28T08:38:29.477Z,6.5
2022-11-28T08:46:38.282Z,6.8
2022-11-28T08:48:39.640Z,10.3
2022-11-28T08:53:09.754Z,12.6
2022-11-28T08:55:11.115Z,6
2022-11-28T08:57:12.515Z,8.7
2022-11-28T08:59:17.207Z,6.2
2022-11-28T09:01:18.744Z,5.5
2022-11-28T09:03:19.955Z,8.3
2022-11-28T09:05:21.314Z,7.6
2022-11-28T09:07:22.711Z,12.6
2022-11-28T09:09:24.045Z,6.9
2022-11-28T09:11:25.412Z,8.2
2022-11-28T09:13:30.079Z,6.6
2022-11-28T09:15:31.437Z,7.7
2022-11-28T09:17:32.790Z,8.2
2022-11-28T09:21:35.548Z,8.5
2022-11-28T09:23:36.890Z,12.1
2022-11-28T09:25:38.266Z,6.6
2022-11-28T09:27:42.990Z,8
2022-11-28T09:37:49.777Z,7.8
2022-11-28T09:47:00.845Z,9
2022-11-28T09:49:02.242Z,8
2022-11-28T09:51:03.602Z,6.6
2022-11-28T09:55:09.616Z,7.1
2022-11-28T09:57:10.987Z,7.4
2022-11-28T09:59:12.366Z,8.5
2022-11-28T10:01:13.718Z,7.6
2022-11-28T10:03:15.172Z,5.6
2022-11-28T10:05:16.453Z,5.9
2022-11-28T10:07:17.890Z,6.4
2022-11-28T10:09:22.481Z,6.3
2022-11-28T10:11:23.874Z,6.3
2022-11-28T10:13:29.666Z,4.9
2022-11-28T10:15:26.599Z,6.2
2022-11-28T10:17:27.929Z,6.3
2022-11-28T10:19:53.336Z,13.8
2022-11-28T10:21:30.711Z,6.2
2022-11-28T10:23:35.414Z,4.5
2022-11-28T10:25:36.812Z,4.1
2022-11-28T10:29:39.540Z,6.3
2022-11-28T10:31:40.900Z,8.5
2022-11-28T10:33:42.294Z,4.9
2022-11-28T10:39:49.747Z,5.5
2022-11-28T10:41:51.129Z,13
2022-11-28T10:42:53.445Z,8.4
2022-11-28T10:44:54.836Z,5.7
2022-11-28T10:46:56.167Z,6.9
2022-11-28T10:48:57.540Z,8.1
2022-11-28T10:51:02.190Z,7.3
2022-11-28T10:53:03.768Z,6.6
2022-11-28T10:55:04.936Z,8.3
2022-11-28T10:57:06.291Z,7.1
2022-11-28T10:59:07.640Z,7.3
2022-11-28T11:01:09.074Z,6.6
2022-11-28T11:03:10.401Z,11.3
2022-11-28T11:07:20.952Z,9.9
2022-11-28T11:09:17.782Z,6.6
2022-11-28T11:11:19.143Z,12.5
2022-11-28T11:13:20.531Z,12.7
2022-11-28T11:21:29.292Z,13.7
2022-11-28T11:23:35.223Z,10.4
2022-11-28T11:25:32.071Z,11.4
2022-11-28T11:27:33.430Z,11.6
2022-11-28T11:29:34.783Z,11.2
2022-11-28T11:31:36.168Z,12.4
2022-11-28T11:33:40.816Z,14.1
2022-11-28T11:35:42.201Z,13.1
2022-11-28T11:37:43.589Z,10.6
2022-11-28T11:38:45.893Z,17.4
2022-11-28T11:40:47.271Z,14.6
2022-11-28T11:42:50.216Z,25.4
2022-11-28T11:44:51.555Z,21.6
2022-11-28T11:46:56.286Z,22.9
2022-11-28T11:48:57.604Z,19.5
2022-11-28T11:50:58.965Z,20.3
2022-11-28T11:53:00.338Z,21.8
2022-11-28T11:55:01.699Z,19.9
2022-11-28T11:59:04.436Z,16.8
2022-11-28T12:03:10.680Z,18.8
2022-11-28T12:05:11.818Z,18.1
2022-11-28T12:09:14.554Z,29.1
2022-11-28T12:11:15.939Z,31.5
2022-11-28T12:15:21.989Z,22.8
2022-11-28T12:17:46.782Z,24.2
2022-11-28T12:19:24.711Z,27.3
2022-11-28T12:21:26.093Z,23.9
2022-11-28T12:23:27.491Z,31.1
2022-11-28T12:25:28.864Z,23.6
2022-11-28T12:27:30.225Z,20.3
2022-11-28T12:29:34.861Z,27.4
2022-11-28T12:36:03.250Z,26.1
2022-11-28T12:38:11.458Z,31.9
2022-11-28T12:40:02.976Z,25.7
2022-11-28T12:42:07.658Z,25
2022-11-28T12:44:09.034Z,32.2
2022-11-28T12:46:10.428Z,23.1
2022-11-28T12:48:11.751Z,28.4
2022-11-28T12:50:13.134Z,28.3
2022-11-28T12:52:14.516Z,27.6
2022-11-28T12:54:15.850Z,23.4
2022-11-28T12:56:20.546Z,26.1
2022-11-28T12:58:21.923Z,36.3
2022-11-28T13:00:23.296Z,29.7
2022-11-28T13:02:24.772Z,26.7
2022-11-28T13:04:26.042Z,21.1
2022-11-28T13:06:27.371Z,25.4
2022-11-28T13:08:28.750Z,17.4
2022-11-28T13:10:33.409Z,31.8
2022-11-28T13:12:34.794Z,22.5
2022-11-28T13:14:36.147Z,28.9
2022-11-28T13:16:37.796Z,24.1
2022-11-28T13:18:38.938Z,25.6
2022-11-28T13:20:40.307Z,25.7
2022-11-28T13:22:41.668Z,23.7
2022-11-28T13:24:46.342Z,22.5
2022-11-28T13:26:47.682Z,43.4
2022-11-28T13:28:49.034Z,21.8
2022-11-28T13:29:51.439Z,21.5
2022-11-28T13:31:56.141Z,24.9
2022-11-28T13:33:54.149Z,21.4
2022-11-28T13:35:55.526Z,21
2022-11-28T13:40:01.587Z,25
2022-11-28T13:42:28.404Z,27.6
2022-11-28T13:50:08.481Z,26.9
2022-11-28T13:52:13.132Z,20.6
2022-11-28T13:54:15.324Z,20.7
2022-11-28T13:56:15.951Z,23.7
2022-11-28T13:58:17.221Z,21.4
2022-11-28T14:00:18.587Z,18.8
2022-11-28T14:02:20.014Z,32.2
2022-11-28T14:04:21.354Z,29.7
2022-11-28T14:06:25.992Z,33.7
2022-11-28T14:08:27.412Z,28.7
2022-11-28T14:10:28.766Z,27.4
2022-11-28T14:12:30.149Z,27.8
2022-11-28T14:14:31.522Z,29.6
2022-11-28T14:16:33.053Z,27.9
2022-11-28T14:18:55.085Z,32.2
2022-11-28T14:20:38.938Z,27.7
2022-11-28T14:25:44.004Z,36.3
2022-11-28T14:27:45.402Z,38.6
2022-11-28T14:29:46.836Z,37.2
2022-11-28T14:32:13.718Z,39.1
2022-11-28T14:33:52.854Z,34.8
2022-11-28T14:35:54.186Z,43.7
2022-11-28T14:37:55.622Z,34.6
2022-11-28T14:39:56.922Z,52.5
2022-11-28T14:41:58.328Z,57.7
2022-11-28T14:43:59.712Z,39
2022-11-28T14:46:01.077Z,34.7
2022-11-28T14:48:05.740Z,51.3
2022-11-28T14:50:07.113Z,47.4
2022-11-28T14:52:30.856Z,46.8
2022-11-28T14:54:09.851Z,44.3
2022-11-28T14:56:11.268Z,35.4
2022-11-28T14:58:12.634Z,36.9
2022-11-28T15:00:13.990Z,40.7
2022-11-28T15:02:18.714Z,59.9
2022-11-28T15:04:20.097Z,48.2
2022-11-28T15:06:21.427Z,50
2022-11-28T15:08:22.790Z,48.9
2022-11-28T15:10:24.176Z,55.4
2022-11-28T15:12:25.534Z,52.1
2022-11-28T15:14:26.920Z,51.8
2022-11-28T15:16:31.643Z,52.1
2022-11-28T15:18:32.951Z,44.9
2022-11-28T15:20:34.472Z,56.3
2022-11-28T15:21:36.639Z,66.9
2022-11-28T15:23:38.012Z,61.4
2022-11-28T15:25:39.394Z,76.8
2022-11-28T15:29:45.450Z,63.8
2022-11-28T15:31:46.914Z,48.1
2022-11-28T15:33:48.185Z,75.4
2022-11-28T15:35:49.595Z,54.8
2022-11-28T15:37:50.954Z,65.6
2022-11-28T15:39:52.345Z,140.3
2022-11-28T15:41:53.710Z,178.8
2022-11-28T15:43:58.392Z,99.9
2022-11-28T15:45:59.738Z,56.2
2022-11-28T15:48:01.149Z,67.1
2022-11-28T15:50:02.533Z,74.6
2022-11-28T15:52:03.934Z,73.2
2022-11-28T15:54:05.289Z,61
2022-11-28T15:56:06.674Z,58.3
2022-11-28T15:58:11.315Z,71.3
2022-11-28T16:00:12.669Z,51.1
2022-11-28T16:02:14.211Z,66.6
2022-11-28T16:04:15.433Z,55.2
2022-11-28T16:06:16.794Z,50.6
2022-11-28T16:08:18.233Z,57.8
2022-11-28T16:10:19.542Z,69
2022-11-28T16:12:24.230Z,67.8
2022-11-28T16:14:25.587Z,68.6
2022-11-28T16:16:27.058Z,83.4
2022-11-28T16:18:55.851Z,98.2
2022-11-28T16:20:57.238Z,125.2
2022-11-28T16:22:58.604Z,135.6
2022-11-28T16:25:03.287Z,102.2
2022-11-28T16:27:04.688Z,90.5
2022-11-28T16:29:06.083Z,118.4
2022-11-28T16:31:07.443Z,88.7
2022-11-28T16:35:10.228Z,66.9
2022-11-28T16:45:20.332Z,80.2
2022-11-28T16:51:24.479Z,82.6
2022-11-28T16:53:29.138Z,76.2
2022-11-28T16:55:30.539Z,79.6
2022-11-28T16:57:33.156Z,73.9
2022-11-28T17:01:34.685Z,67
2022-11-28T17:03:36.053Z,90.9
2022-11-28T17:05:37.418Z,88.3
2022-11-28T17:07:42.198Z,58.7
2022-11-28T17:11:44.867Z,82.6
2022-11-28T17:12:47.194Z,72.3
2022-11-28T17:14:48.562Z,70.6
2022-11-28T17:16:50.007Z,61.4
2022-11-28T17:18:51.314Z,87.9
2022-11-28T17:20:56.045Z,81
2022-11-28T17:22:57.401Z,85.3
2022-11-28T17:24:58.761Z,90.7
2022-11-28T17:27:00.186Z,75.9
2022-11-28T17:29:01.491Z,88.4
2022-11-28T17:31:02.866Z,92.3
2022-11-28T17:33:05.869Z,88.3
2022-11-28T17:35:10.451Z,84.9
2022-11-28T17:37:11.828Z,102
2022-11-28T17:39:13.192Z,87.7
2022-11-28T17:43:15.928Z,85.7
2022-11-28T17:45:17.323Z,101.9
2022-11-28T17:49:23.377Z,102.7
2022-11-28T17:53:26.094Z,97.5
2022-11-28T17:55:27.445Z,60
2022-11-28T17:59:30.173Z,84.6
2022-11-28T18:01:31.654Z,107.6
2022-11-28T18:03:36.282Z,92.1
2022-11-28T18:05:37.652Z,85.7
2022-11-28T18:07:39.156Z,91.7
2022-11-28T18:08:41.377Z,92.8
2022-11-28T18:10:42.766Z,96
2022-11-28T18:12:44.156Z,86.7
2022-11-28T18:14:45.488Z,92.2
2022-11-28T18:16:50.190Z,107.6
2022-11-28T18:18:51.532Z,91.4
2022-11-28T18:26:57.017Z,92.1
2022-11-28T18:28:58.383Z,105.4
2022-11-28T18:35:05.830Z,104.2
2022-11-28T18:37:07.164Z,99.5
2022-11-28T18:39:08.566Z,118.6
2022-11-28T18:45:15.987Z,127
2022-11-28T18:47:17.340Z,129.5
2022-11-28T18:49:18.706Z,123.7
2022-11-28T18:51:20.075Z,151
2022-11-28T18:55:22.806Z,127.1
2022-11-28T18:57:24.180Z,134.5
2022-11-28T18:59:28.879Z,129.1
2022-11-28T19:01:30.530Z,142.8
2022-11-28T19:03:31.601Z,137.4
2022-11-28T19:04:33.962Z,150.9
2022-11-28T19:06:35.316Z,176.1
2022-11-28T19:08:36.698Z,123.4
2022-11-28T19:10:38.057Z,122.6
2022-11-28T19:12:42.767Z,135.8
2022-11-28T19:16:45.556Z,152.3
2022-11-28T19:18:46.849Z,177.8
2022-11-28T19:28:56.995Z,471.1
2022-11-28T19:37:02.496Z,555.7
2022-11-28T19:39:03.890Z,474.7
2022-11-28T19:51:15.369Z,370.6
2022-11-28T19:53:16.729Z,321
2022-11-28T19:55:21.392Z,407.9
2022-11-28T19:57:22.763Z,298.6
2022-11-28T19:59:24.141Z,311.9
2022-11-28T20:01:50.918Z,377.2
2022-11-28T20:03:52.237Z,384.6
2022-11-28T20:05:53.587Z,248.6
2022-11-28T20:07:58.651Z,497.6
2022-11-28T20:09:59.615Z,546.6
2022-11-28T20:12:01.005Z,563
2022-11-28T20:14:02.350Z,521.1
2022-11-28T20:16:03.676Z,392.9
2022-11-28T20:18:05.027Z,296.2
2022-11-28T20:20:06.398Z,159.5
2022-11-28T20:24:12.468Z,147.9
2022-11-28T20:26:13.807Z,123.6
2022-11-28T20:28:15.169Z,131.8
2022-11-28T20:30:16.519Z,103
2022-11-28T20:32:17.887Z,101.6
2022-11-28T20:34:19.252Z,114.2
2022-11-28T20:36:23.961Z,148.6
2022-11-28T20:38:25.372Z,119.7
2022-11-28T20:40:26.711Z,114.7
2022-11-28T20:42:28.066Z,131.4
2022-11-28T20:44:29.474Z,155.9
2022-11-28T20:46:30.774Z,135.7
2022-11-28T20:48:32.167Z,168.6
2022-11-28T20:50:36.802Z,144.3
2022-11-28T20:52:38.163Z,142.2
2022-11-28T20:54:39.504Z,155.9
2022-11-28T21:13:57.457Z,167
2022-11-28T21:15:58.816Z,131.5
2022-11-28T21:22:06.216Z,146.7
2022-11-28T21:24:07.596Z,143.2
2022-11-28T21:26:08.953Z,142.7
2022-11-28T21:28:10.304Z,155.7
2022-11-28T21:30:11.693Z,139.9
2022-11-28T21:34:17.844Z,152.1
2022-11-28T21:36:19.051Z,107.3
2022-11-28T21:38:20.420Z,145.5
2022-11-28T21:40:21.821Z,126.3
2022-11-28T21:42:23.181Z,129.8
2022-11-28T21:44:24.566Z,134.9
2022-11-28T21:46:29.214Z,130.4
2022-11-28T21:48:30.587Z,137.9
2022-11-28T21:51:34.298Z,138.7
2022-11-28T21:57:38.385Z,119.9
2022-11-28T22:03:45.803Z,145.4
2022-11-28T22:05:47.163Z,123.1
2022-11-28T22:07:48.561Z,143.9
2022-11-28T22:09:49.893Z,147.6
2022-11-28T22:11:51.275Z,160.2
2022-11-28T22:15:57.365Z,156.5
2022-11-28T22:17:58.705Z,136
2022-11-28T22:20:00.134Z,88.9
2022-11-28T22:22:01.435Z,125.6
2022-11-28T22:28:08.883Z,163.7
2022-11-28T22:30:10.234Z,114.7
2022-11-28T22:34:12.962Z,142.8
2022-11-28T22:38:15.738Z,129.4
2022-11-28T22:40:17.098Z,162.7
2022-11-28T22:42:21.784Z,127.2
2022-11-28T22:44:23.173Z,134.6
2022-11-28T22:46:24.541Z,133.1
2022-11-28T22:47:26.882Z,122.8
2022-11-28T22:49:28.244Z,124.3
2022-11-28T22:51:29.622Z,125.4
2022-11-28T22:53:30.967Z,141.3
2022-11-28T22:57:37.004Z,128.8
2022-11-28T22:59:38.359Z,118.3
2022-11-28T23:01:39.802Z,116.1
2022-11-28T23:03:41.108Z,134.7
2022-11-28T23:05:46.517Z,104.4
2022-11-28T23:09:48.485Z,133.9
2022-11-28T23:11:49.863Z,121.9
2022-11-28T23:13:51.225Z,180.3
2022-11-28T23:21:56.653Z,175.1
2022-11-28T23:24:02.888Z,228.8
2022-11-28T23:34:09.687Z,142.9
2022-11-28T23:44:35.364Z,107.5
2022-11-28T23:46:36.727Z,99.1
2022-11-28T23:48:38.099Z,114.9
2022-11-28T23:50:42.789Z,161.5
2022-11-28T23:52:44.146Z,155
2022-11-28T23:54:45.757Z,106.7
2022-11-28T23:56:46.894Z,107.7
2022-11-28T23:58:48.267Z,103.6
